sensor_id;sensor_type;location;lat;lon;timestamp;P1;durP1;ratioP1;P2;durP2;ratioP2
25333;SDS011;24559;53.590;9.764;2023-07-20T00:01:59;2.83;;;1.80;;
25333;SDS011;24559;53.590;9.764;2023-07-20T00:04:25;1.92;;;1.80;;
25333;SDS011;24559;53.590;9.764;2023-07-20T00:06:51;1.73;;;1.63;;
25333;SDS011;24559;53.590;9.764;2023-07-20T00:09:17;2.30;;;1.88;;
25333;SDS011;24559;53.590;9.764;2023-07-20T00:11:50;2.35;;;2.00;;
25333;SDS011;24559;53.590;9.764;2023-07-20T00:14:17;4.75;;;1.48;;
25333;SDS011;24559;53.590;9.764;2023-07-20T00:16:44;1.98;;;1.55;;
25333;SDS011;24559;53.590;9.764;2023-07-20T00:19:11;1.90;;;1.80;;
25333;SDS011;24559;53.590;9.764;2023-07-20T00:21:38;2.03;;;1.80;;
25333;SDS011;24559;53.590;9.764;2023-07-20T00:24:07;1.85;;;1.75;;
25333;SDS011;24559;53.590;9.764;2023-07-20T00:26:34;1.92;;;1.60;;
25333;SDS011;24559;53.590;9.764;2023-07-20T00:29:00;1.73;;;1.63;;
25333;SDS011;24559;53.590;9.764;2023-07-20T00:31:26;1.90;;;1.80;;
25333;SDS011;24559;53.590;9.764;2023-07-20T00:33:52;5.60;;;2.08;;
25333;SDS011;24559;53.590;9.764;2023-07-20T00:36:19;5.07;;;2.92;;
25333;SDS011;24559;53.590;9.764;2023-07-20T00:38:45;4.68;;;2.22;;
25333;SDS011;24559;53.590;9.764;2023-07-20T00:41:11;2.97;;;2.80;;
25333;SDS011;24559;53.590;9.764;2023-07-20T00:43:39;3.08;;;2.17;;
25333;SDS011;24559;53.590;9.764;2023-07-20T00:46:05;4.55;;;2.78;;
25333;SDS011;24559;53.590;9.764;2023-07-20T00:48:31;2.63;;;2.50;;
25333;SDS011;24559;53.590;9.764;2023-07-20T00:50:58;2.80;;;2.33;;
25333;SDS011;24559;53.590;9.764;2023-07-20T00:53:25;3.05;;;2.65;;
25333;SDS011;24559;53.590;9.764;2023-07-20T00:55:52;4.50;;;2.95;;
25333;SDS011;24559;53.590;9.764;2023-07-20T00:58:19;3.88;;;3.47;;
25333;SDS011;24559;53.590;9.764;2023-07-20T01:00:45;3.38;;;3.15;;
25333;SDS011;24559;53.590;9.764;2023-07-20T01:03:12;4.45;;;3.38;;
25333;SDS011;24559;53.590;9.764;2023-07-20T01:05:45;6.78;;;3.33;;
25333;SDS011;24559;53.590;9.764;2023-07-20T01:08:24;4.07;;;3.10;;
25333;SDS011;24559;53.590;9.764;2023-07-20T01:11:05;4.25;;;3.85;;
25333;SDS011;24559;53.590;9.764;2023-07-20T01:13:33;4.30;;;3.85;;
25333;SDS011;24559;53.590;9.764;2023-07-20T01:16:03;3.63;;;3.28;;
25333;SDS011;24559;53.590;9.764;2023-07-20T01:18:29;3.55;;;3.05;;
25333;SDS011;24559;53.590;9.764;2023-07-20T01:20:57;3.53;;;2.97;;
25333;SDS011;24559;53.590;9.764;2023-07-20T01:33:47;3.97;;;2.60;;
25333;SDS011;24559;53.590;9.764;2023-07-20T01:36:16;3.40;;;3.10;;
25333;SDS011;24559;53.590;9.764;2023-07-20T01:38:43;3.25;;;2.85;;
25333;SDS011;24559;53.590;9.764;2023-07-20T01:41:10;2.72;;;2.53;;
25333;SDS011;24559;53.590;9.764;2023-07-20T01:43:36;4.20;;;2.90;;
25333;SDS011;24559;53.590;9.764;2023-07-20T01:46:04;3.08;;;2.88;;
25333;SDS011;24559;53.590;9.764;2023-07-20T01:48:30;3.35;;;2.42;;
25333;SDS011;24559;53.590;9.764;2023-07-20T01:50:56;3.30;;;3.00;;
25333;SDS011;24559;53.590;9.764;2023-07-20T01:53:22;2.42;;;2.10;;
25333;SDS011;24559;53.590;9.764;2023-07-20T01:55:48;5.45;;;3.00;;
25333;SDS011;24559;53.590;9.764;2023-07-20T01:58:15;3.28;;;2.40;;
25333;SDS011;24559;53.590;9.764;2023-07-20T02:00:41;3.42;;;3.10;;
25333;SDS011;24559;53.590;9.764;2023-07-20T02:03:07;3.03;;;2.65;;
25333;SDS011;24559;53.590;9.764;2023-07-20T02:05:33;2.55;;;2.38;;
25333;SDS011;24559;53.590;9.764;2023-07-20T02:07:59;2.33;;;2.22;;
25333;SDS011;24559;53.590;9.764;2023-07-20T02:10:25;4.00;;;2.95;;
25333;SDS011;24559;53.590;9.764;2023-07-20T02:12:52;2.00;;;1.90;;
25333;SDS011;24559;53.590;9.764;2023-07-20T02:15:18;2.75;;;1.98;;
25333;SDS011;24559;53.590;9.764;2023-07-20T02:17:44;4.00;;;2.00;;
25333;SDS011;24559;53.590;9.764;2023-07-20T02:20:11;5.85;;;2.78;;
25333;SDS011;24559;53.590;9.764;2023-07-20T02:22:37;3.38;;;3.08;;
25333;SDS011;24559;53.590;9.764;2023-07-20T02:25:04;3.22;;;2.50;;
25333;SDS011;24559;53.590;9.764;2023-07-20T02:27:30;3.70;;;2.40;;
25333;SDS011;24559;53.590;9.764;2023-07-20T02:29:57;2.50;;;2.40;;
25333;SDS011;24559;53.590;9.764;2023-07-20T02:32:23;3.22;;;2.80;;
25333;SDS011;24559;53.590;9.764;2023-07-20T02:34:49;3.25;;;2.17;;
25333;SDS011;24559;53.590;9.764;2023-07-20T02:37:16;2.67;;;2.47;;
25333;SDS011;24559;53.590;9.764;2023-07-20T02:39:42;1.83;;;1.73;;
25333;SDS011;24559;53.590;9.764;2023-07-20T02:42:08;1.92;;;1.70;;
25333;SDS011;24559;53.590;9.764;2023-07-20T02:44:34;1.65;;;1.55;;
25333;SDS011;24559;53.590;9.764;2023-07-20T02:47:01;3.28;;;2.40;;
25333;SDS011;24559;53.590;9.764;2023-07-20T02:49:27;2.65;;;2.13;;
25333;SDS011;24559;53.590;9.764;2023-07-20T02:51:54;1.85;;;1.75;;
25333;SDS011;24559;53.590;9.764;2023-07-20T02:54:20;3.15;;;2.25;;
25333;SDS011;24559;53.590;9.764;2023-07-20T02:56:46;1.65;;;1.55;;
25333;SDS011;24559;53.590;9.764;2023-07-20T02:59:13;1.50;;;1.40;;
25333;SDS011;24559;53.590;9.764;2023-07-20T03:01:39;1.98;;;1.88;;
25333;SDS011;24559;53.590;9.764;2023-07-20T03:04:07;2.13;;;1.92;;
25333;SDS011;24559;53.590;9.764;2023-07-20T03:06:35;1.85;;;1.75;;
25333;SDS011;24559;53.590;9.764;2023-07-20T03:09:02;3.08;;;2.20;;
25333;SDS011;24559;53.590;9.764;2023-07-20T03:11:32;2.17;;;2.08;;
25333;SDS011;24559;53.590;9.764;2023-07-20T03:13:59;2.90;;;1.80;;
25333;SDS011;24559;53.590;9.764;2023-07-20T03:16:25;1.67;;;1.58;;
25333;SDS011;24559;53.590;9.764;2023-07-20T03:18:52;3.00;;;2.35;;
25333;SDS011;24559;53.590;9.764;2023-07-20T03:21:19;2.55;;;2.35;;
25333;SDS011;24559;53.590;9.764;2023-07-20T03:23:45;2.45;;;1.83;;
25333;SDS011;24559;53.590;9.764;2023-07-20T03:26:11;2.60;;;2.20;;
25333;SDS011;24559;53.590;9.764;2023-07-20T03:28:38;2.60;;;2.40;;
25333;SDS011;24559;53.590;9.764;2023-07-20T03:31:04;2.17;;;2.00;;
25333;SDS011;24559;53.590;9.764;2023-07-20T03:33:35;2.30;;;2.13;;
25333;SDS011;24559;53.590;9.764;2023-07-20T03:36:01;2.55;;;2.45;;
25333;SDS011;24559;53.590;9.764;2023-07-20T03:38:29;2.80;;;2.13;;
25333;SDS011;24559;53.590;9.764;2023-07-20T03:40:55;2.15;;;1.95;;
25333;SDS011;24559;53.590;9.764;2023-07-20T03:43:25;2.38;;;2.28;;
25333;SDS011;24559;53.590;9.764;2023-07-20T03:45:52;3.38;;;2.50;;
25333;SDS011;24559;53.590;9.764;2023-07-20T03:48:20;2.75;;;2.55;;
25333;SDS011;24559;53.590;9.764;2023-07-20T03:50:47;4.00;;;2.33;;
25333;SDS011;24559;53.590;9.764;2023-07-20T03:53:17;2.97;;;2.78;;
25333;SDS011;24559;53.590;9.764;2023-07-20T03:55:47;2.65;;;2.50;;
25333;SDS011;24559;53.590;9.764;2023-07-20T03:58:14;2.78;;;1.90;;
25333;SDS011;24559;53.590;9.764;2023-07-20T04:00:43;2.83;;;2.63;;
25333;SDS011;24559;53.590;9.764;2023-07-20T04:03:10;3.10;;;2.47;;
25333;SDS011;24559;53.590;9.764;2023-07-20T04:05:36;1.98;;;1.92;;
25333;SDS011;24559;53.590;9.764;2023-07-20T04:08:02;2.33;;;2.08;;
25333;SDS011;24559;53.590;9.764;2023-07-20T04:10:28;2.35;;;2.20;;
25333;SDS011;24559;53.590;9.764;2023-07-20T04:12:55;2.40;;;2.22;;
25333;SDS011;24559;53.590;9.764;2023-07-20T04:15:21;2.50;;;2.15;;
25333;SDS011;24559;53.590;9.764;2023-07-20T04:17:47;3.35;;;2.38;;
25333;SDS011;24559;53.590;9.764;2023-07-20T04:20:13;2.05;;;1.95;;
25333;SDS011;24559;53.590;9.764;2023-07-20T04:22:39;2.58;;;2.35;;
25333;SDS011;24559;53.590;9.764;2023-07-20T04:25:09;3.78;;;2.33;;
25333;SDS011;24559;53.590;9.764;2023-07-20T04:27:36;3.58;;;2.78;;
25333;SDS011;24559;53.590;9.764;2023-07-20T04:30:02;3.00;;;2.80;;
25333;SDS011;24559;53.590;9.764;2023-07-20T04:32:29;3.30;;;3.10;;
25333;SDS011;24559;53.590;9.764;2023-07-20T04:34:59;3.38;;;3.17;;
25333;SDS011;24559;53.590;9.764;2023-07-20T04:37:27;5.32;;;4.47;;
25333;SDS011;24559;53.590;9.764;2023-07-20T04:39:53;3.30;;;3.10;;
25333;SDS011;24559;53.590;9.764;2023-07-20T04:42:19;4.40;;;3.60;;
25333;SDS011;24559;53.590;9.764;2023-07-20T04:44:46;4.70;;;3.00;;
25333;SDS011;24559;53.590;9.764;2023-07-20T04:47:12;4.22;;;3.75;;
25333;SDS011;24559;53.590;9.764;2023-07-20T04:49:38;3.75;;;3.55;;
25333;SDS011;24559;53.590;9.764;2023-07-20T04:52:04;5.63;;;4.60;;
25333;SDS011;24559;53.590;9.764;2023-07-20T04:54:31;3.70;;;3.25;;
25333;SDS011;24559;53.590;9.764;2023-07-20T04:56:57;5.20;;;3.70;;
25333;SDS011;24559;53.590;9.764;2023-07-20T04:59:23;4.15;;;3.85;;
25333;SDS011;24559;53.590;9.764;2023-07-20T05:01:50;4.78;;;4.40;;
25333;SDS011;24559;53.590;9.764;2023-07-20T05:04:17;3.80;;;3.40;;
25333;SDS011;24559;53.590;9.764;2023-07-20T05:06:43;4.35;;;4.05;;
25333;SDS011;24559;53.590;9.764;2023-07-20T05:09:10;4.68;;;4.25;;
25333;SDS011;24559;53.590;9.764;2023-07-20T05:11:36;3.65;;;3.45;;
25333;SDS011;24559;53.590;9.764;2023-07-20T05:14:02;4.57;;;4.28;;
25333;SDS011;24559;53.590;9.764;2023-07-20T05:16:29;5.20;;;4.18;;
25333;SDS011;24559;53.590;9.764;2023-07-20T05:19:03;4.55;;;3.50;;
25333;SDS011;24559;53.590;9.764;2023-07-20T05:21:30;3.60;;;3.00;;
25333;SDS011;24559;53.590;9.764;2023-07-20T05:23:56;3.25;;;3.00;;
25333;SDS011;24559;53.590;9.764;2023-07-20T05:26:22;3.45;;;3.22;;
25333;SDS011;24559;53.590;9.764;2023-07-20T05:28:49;4.15;;;3.35;;
25333;SDS011;24559;53.590;9.764;2023-07-20T05:31:15;3.92;;;2.80;;
25333;SDS011;24559;53.590;9.764;2023-07-20T05:33:41;3.75;;;3.47;;
25333;SDS011;24559;53.590;9.764;2023-07-20T05:36:07;4.32;;;3.33;;
25333;SDS011;24559;53.590;9.764;2023-07-20T05:38:34;2.95;;;2.75;;
25333;SDS011;24559;53.590;9.764;2023-07-20T05:41:00;3.47;;;2.50;;
25333;SDS011;24559;53.590;9.764;2023-07-20T05:43:27;4.40;;;2.65;;
25333;SDS011;24559;53.590;9.764;2023-07-20T05:45:53;4.32;;;2.88;;
25333;SDS011;24559;53.590;9.764;2023-07-20T05:48:21;2.45;;;2.25;;
25333;SDS011;24559;53.590;9.764;2023-07-20T05:50:47;3.53;;;2.00;;
25333;SDS011;24559;53.590;9.764;2023-07-20T05:53:14;2.30;;;2.08;;
25333;SDS011;24559;53.590;9.764;2023-07-20T05:55:40;3.58;;;2.40;;
25333;SDS011;24559;53.590;9.764;2023-07-20T05:58:06;1.88;;;1.75;;
25333;SDS011;24559;53.590;9.764;2023-07-20T06:00:33;3.72;;;2.00;;
25333;SDS011;24559;53.590;9.764;2023-07-20T06:02:59;3.35;;;1.90;;
25333;SDS011;24559;53.590;9.764;2023-07-20T06:05:25;3.45;;;1.45;;
25333;SDS011;24559;53.590;9.764;2023-07-20T06:07:51;3.28;;;1.73;;
25333;SDS011;24559;53.590;9.764;2023-07-20T06:10:19;4.80;;;1.92;;
25333;SDS011;24559;53.590;9.764;2023-07-20T06:12:46;3.00;;;1.42;;
25333;SDS011;24559;53.590;9.764;2023-07-20T06:18:12;4.65;;;1.60;;
25333;SDS011;24559;53.590;9.764;2023-07-20T06:20:39;3.33;;;1.30;;
25333;SDS011;24559;53.590;9.764;2023-07-20T06:23:05;2.30;;;1.40;;
25333;SDS011;24559;53.590;9.764;2023-07-20T06:25:32;2.30;;;1.10;;
25333;SDS011;24559;53.590;9.764;2023-07-20T06:27:58;1.98;;;1.20;;
25333;SDS011;24559;53.590;9.764;2023-07-20T06:30:24;2.08;;;1.00;;
25333;SDS011;24559;53.590;9.764;2023-07-20T06:32:51;1.55;;;0.95;;
25333;SDS011;24559;53.590;9.764;2023-07-20T06:35:18;2.13;;;1.05;;
25333;SDS011;24559;53.590;9.764;2023-07-20T06:37:44;3.30;;;1.20;;
25333;SDS011;24559;53.590;9.764;2023-07-20T06:40:11;1.83;;;0.98;;
25333;SDS011;24559;53.590;9.764;2023-07-20T06:42:37;1.30;;;1.13;;
25333;SDS011;24559;53.590;9.764;2023-07-20T06:45:03;1.60;;;0.80;;
25333;SDS011;24559;53.590;9.764;2023-07-20T06:47:30;3.88;;;0.95;;
25333;SDS011;24559;53.590;9.764;2023-07-20T06:49:56;3.00;;;1.00;;
25333;SDS011;24559;53.590;9.764;2023-07-20T06:52:23;1.65;;;1.17;;
25333;SDS011;24559;53.590;9.764;2023-07-20T06:54:49;1.70;;;1.05;;
25333;SDS011;24559;53.590;9.764;2023-07-20T06:57:16;3.00;;;1.58;;
25333;SDS011;24559;53.590;9.764;2023-07-20T06:59:43;2.67;;;1.10;;
25333;SDS011;24559;53.590;9.764;2023-07-20T07:02:10;2.65;;;1.38;;
25333;SDS011;24559;53.590;9.764;2023-07-20T07:04:36;4.85;;;1.05;;
25333;SDS011;24559;53.590;9.764;2023-07-20T07:07:02;3.05;;;1.27;;
25333;SDS011;24559;53.590;9.764;2023-07-20T07:09:28;2.50;;;0.88;;
25333;SDS011;24559;53.590;9.764;2023-07-20T07:11:55;2.55;;;1.42;;
25333;SDS011;24559;53.590;9.764;2023-07-20T07:14:21;2.90;;;1.20;;
25333;SDS011;24559;53.590;9.764;2023-07-20T07:16:47;3.65;;;1.70;;
25333;SDS011;24559;53.590;9.764;2023-07-20T07:19:13;2.80;;;1.40;;
25333;SDS011;24559;53.590;9.764;2023-07-20T07:21:39;2.67;;;1.48;;
25333;SDS011;24559;53.590;9.764;2023-07-20T07:24:06;4.78;;;1.20;;
25333;SDS011;24559;53.590;9.764;2023-07-20T07:26:33;5.78;;;1.38;;
25333;SDS011;24559;53.590;9.764;2023-07-20T07:28:59;3.13;;;1.55;;
25333;SDS011;24559;53.590;9.764;2023-07-20T07:31:25;6.00;;;1.90;;
25333;SDS011;24559;53.590;9.764;2023-07-20T07:33:51;4.32;;;1.50;;
25333;SDS011;24559;53.590;9.764;2023-07-20T07:36:17;4.40;;;1.70;;
25333;SDS011;24559;53.590;9.764;2023-07-20T07:38:44;4.20;;;1.55;;
25333;SDS011;24559;53.590;9.764;2023-07-20T07:41:10;4.38;;;1.73;;
25333;SDS011;24559;53.590;9.764;2023-07-20T07:43:36;3.92;;;1.88;;
25333;SDS011;24559;53.590;9.764;2023-07-20T07:46:03;4.47;;;2.10;;
25333;SDS011;24559;53.590;9.764;2023-07-20T07:48:30;3.63;;;1.60;;
25333;SDS011;24559;53.590;9.764;2023-07-20T07:50:56;5.70;;;2.00;;
25333;SDS011;24559;53.590;9.764;2023-07-20T07:53:22;2.63;;;2.10;;
25333;SDS011;24559;53.590;9.764;2023-07-20T07:55:50;4.55;;;2.10;;
25333;SDS011;24559;53.590;9.764;2023-07-20T07:58:17;2.92;;;2.00;;
25333;SDS011;24559;53.590;9.764;2023-07-20T08:00:43;4.97;;;2.05;;
25333;SDS011;24559;53.590;9.764;2023-07-20T08:03:09;7.25;;;2.70;;
25333;SDS011;24559;53.590;9.764;2023-07-20T08:05:36;7.63;;;2.60;;
25333;SDS011;24559;53.590;9.764;2023-07-20T08:08:02;4.88;;;2.20;;
25333;SDS011;24559;53.590;9.764;2023-07-20T08:10:29;4.90;;;2.20;;
25333;SDS011;24559;53.590;9.764;2023-07-20T08:12:55;2.63;;;2.10;;
25333;SDS011;24559;53.590;9.764;2023-07-20T08:15:21;5.55;;;2.22;;
25333;SDS011;24559;53.590;9.764;2023-07-20T08:17:48;4.63;;;2.03;;
25333;SDS011;24559;53.590;9.764;2023-07-20T08:20:16;3.83;;;1.95;;
25333;SDS011;24559;53.590;9.764;2023-07-20T08:22:43;6.45;;;1.90;;
25333;SDS011;24559;53.590;9.764;2023-07-20T08:25:09;5.13;;;2.40;;
25333;SDS011;24559;53.590;9.764;2023-07-20T08:27:36;4.38;;;2.60;;
25333;SDS011;24559;53.590;9.764;2023-07-20T08:30:02;5.80;;;2.20;;
25333;SDS011;24559;53.590;9.764;2023-07-20T08:32:33;4.07;;;2.20;;
25333;SDS011;24559;53.590;9.764;2023-07-20T08:34:59;3.38;;;2.13;;
25333;SDS011;24559;53.590;9.764;2023-07-20T08:37:25;6.90;;;2.40;;
25333;SDS011;24559;53.590;9.764;2023-07-20T08:39:51;5.18;;;2.25;;
25333;SDS011;24559;53.590;9.764;2023-07-20T08:42:18;8.32;;;2.30;;
25333;SDS011;24559;53.590;9.764;2023-07-20T08:44:44;5.15;;;2.00;;
25333;SDS011;24559;53.590;9.764;2023-07-20T08:47:11;5.00;;;2.17;;
25333;SDS011;24559;53.590;9.764;2023-07-20T08:49:38;4.95;;;2.03;;
25333;SDS011;24559;53.590;9.764;2023-07-20T08:52:05;4.35;;;2.33;;
25333;SDS011;24559;53.590;9.764;2023-07-20T08:54:31;5.30;;;2.10;;
25333;SDS011;24559;53.590;9.764;2023-07-20T08:56:58;7.97;;;2.03;;
25333;SDS011;24559;53.590;9.764;2023-07-20T08:59:26;6.13;;;1.80;;
25333;SDS011;24559;53.590;9.764;2023-07-20T09:01:54;3.17;;;1.40;;
25333;SDS011;24559;53.590;9.764;2023-07-20T09:04:21;3.75;;;1.48;;
25333;SDS011;24559;53.590;9.764;2023-07-20T09:06:48;3.67;;;1.38;;
25333;SDS011;24559;53.590;9.764;2023-07-20T09:09:15;3.22;;;1.63;;
25333;SDS011;24559;53.590;9.764;2023-07-20T09:11:41;5.70;;;1.40;;
25333;SDS011;24559;53.590;9.764;2023-07-20T09:14:08;4.07;;;1.10;;
25333;SDS011;24559;53.590;9.764;2023-07-20T09:16:53;7.28;;;1.90;;
25333;SDS011;24559;53.590;9.764;2023-07-20T09:19:20;2.30;;;1.02;;
25333;SDS011;24559;53.590;9.764;2023-07-20T09:21:46;3.25;;;0.90;;
25333;SDS011;24559;53.590;9.764;2023-07-20T09:24:13;4.43;;;1.17;;
25333;SDS011;24559;53.590;9.764;2023-07-20T09:26:43;4.13;;;1.17;;
25333;SDS011;24559;53.590;9.764;2023-07-20T09:29:10;4.78;;;1.52;;
25333;SDS011;24559;53.590;9.764;2023-07-20T09:31:37;3.25;;;1.20;;
25333;SDS011;24559;53.590;9.764;2023-07-20T09:34:05;5.88;;;1.10;;
25333;SDS011;24559;53.590;9.764;2023-07-20T09:36:33;3.95;;;1.20;;
25333;SDS011;24559;53.590;9.764;2023-07-20T09:39:00;1.73;;;1.10;;
25333;SDS011;24559;53.590;9.764;2023-07-20T09:41:27;1.25;;;1.02;;
25333;SDS011;24559;53.590;9.764;2023-07-20T09:43:53;2.90;;;1.05;;
25333;SDS011;24559;53.590;9.764;2023-07-20T09:46:20;1.38;;;1.00;;
25333;SDS011;24559;53.590;9.764;2023-07-20T09:48:52;6.10;;;1.13;;
25333;SDS011;24559;53.590;9.764;2023-07-20T09:51:21;3.63;;;0.90;;
25333;SDS011;24559;53.590;9.764;2023-07-20T09:53:47;2.75;;;0.88;;
25333;SDS011;24559;53.590;9.764;2023-07-20T09:56:15;3.15;;;0.95;;
25333;SDS011;24559;53.590;9.764;2023-07-20T09:58:43;2.55;;;1.13;;
25333;SDS011;24559;53.590;9.764;2023-07-20T10:01:10;3.47;;;0.90;;
25333;SDS011;24559;53.590;9.764;2023-07-20T10:03:39;4.18;;;1.30;;
25333;SDS011;24559;53.590;9.764;2023-07-20T10:06:08;2.03;;;0.93;;
25333;SDS011;24559;53.590;9.764;2023-07-20T10:08:38;4.95;;;1.13;;
25333;SDS011;24559;53.590;9.764;2023-07-20T10:11:05;2.10;;;1.02;;
25333;SDS011;24559;53.590;9.764;2023-07-20T10:13:33;1.67;;;1.33;;
25333;SDS011;24559;53.590;9.764;2023-07-20T10:16:03;1.80;;;0.85;;
25333;SDS011;24559;53.590;9.764;2023-07-20T10:18:31;2.55;;;1.05;;
25333;SDS011;24559;53.590;9.764;2023-07-20T10:20:59;1.48;;;0.73;;
25333;SDS011;24559;53.590;9.764;2023-07-20T10:23:26;1.58;;;0.73;;
25333;SDS011;24559;53.590;9.764;2023-07-20T10:25:54;1.92;;;0.82;;
25333;SDS011;24559;53.590;9.764;2023-07-20T10:28:20;2.05;;;0.80;;
25333;SDS011;24559;53.590;9.764;2023-07-20T10:30:48;2.55;;;1.00;;
25333;SDS011;24559;53.590;9.764;2023-07-20T10:33:15;1.60;;;1.00;;
25333;SDS011;24559;53.590;9.764;2023-07-20T10:35:55;1.80;;;0.98;;
25333;SDS011;24559;53.590;9.764;2023-07-20T10:43:51;1.77;;;0.70;;
25333;SDS011;24559;53.590;9.764;2023-07-20T10:49:03;1.65;;;0.73;;
25333;SDS011;24559;53.590;9.764;2023-07-20T10:51:29;3.42;;;1.10;;
25333;SDS011;24559;53.590;9.764;2023-07-20T10:53:56;3.63;;;1.00;;
25333;SDS011;24559;53.590;9.764;2023-07-20T10:56:26;0.98;;;0.65;;
25333;SDS011;24559;53.590;9.764;2023-07-20T10:58:58;1.40;;;0.60;;
25333;SDS011;24559;53.590;9.764;2023-07-20T11:01:28;1.75;;;0.60;;
25333;SDS011;24559;53.590;9.764;2023-07-20T11:03:58;0.57;;;0.40;;
25333;SDS011;24559;53.590;9.764;2023-07-20T11:09:07;0.40;;;0.40;;
25333;SDS011;24559;53.590;9.764;2023-07-20T11:14:03;1.33;;;0.60;;
25333;SDS011;24559;53.590;9.764;2023-07-20T11:19:05;1.42;;;0.68;;
25333;SDS011;24559;53.590;9.764;2023-07-20T11:21:36;1.13;;;0.70;;
25333;SDS011;24559;53.590;9.764;2023-07-20T11:24:06;2.13;;;1.20;;
25333;SDS011;24559;53.590;9.764;2023-07-20T11:26:41;5.20;;;1.40;;
25333;SDS011;24559;53.590;9.764;2023-07-20T11:29:07;2.03;;;0.75;;
25333;SDS011;24559;53.590;9.764;2023-07-20T11:31:37;3.40;;;0.90;;
25333;SDS011;24559;53.590;9.764;2023-07-20T11:34:04;2.17;;;0.90;;
25333;SDS011;24559;53.590;9.764;2023-07-20T11:36:30;2.05;;;0.80;;
25333;SDS011;24559;53.590;9.764;2023-07-20T11:38:57;2.08;;;1.00;;
25333;SDS011;24559;53.590;9.764;2023-07-20T11:41:23;1.75;;;0.60;;
25333;SDS011;24559;53.590;9.764;2023-07-20T11:43:51;1.02;;;0.80;;
25333;SDS011;24559;53.590;9.764;2023-07-20T11:46:17;1.42;;;0.80;;
25333;SDS011;24559;53.590;9.764;2023-07-20T11:48:43;2.72;;;1.00;;
25333;SDS011;24559;53.590;9.764;2023-07-20T11:51:13;2.28;;;1.10;;
25333;SDS011;24559;53.590;9.764;2023-07-20T11:53:41;3.47;;;0.90;;
25333;SDS011;24559;53.590;9.764;2023-07-20T11:56:07;1.35;;;0.73;;
25333;SDS011;24559;53.590;9.764;2023-07-20T11:58:33;3.10;;;0.90;;
25333;SDS011;24559;53.590;9.764;2023-07-20T12:00:59;1.50;;;0.68;;
25333;SDS011;24559;53.590;9.764;2023-07-20T12:03:26;3.90;;;1.13;;
25333;SDS011;24559;53.590;9.764;2023-07-20T12:05:53;2.30;;;0.70;;
25333;SDS011;24559;53.590;9.764;2023-07-20T12:08:19;1.80;;;0.70;;
25333;SDS011;24559;53.590;9.764;2023-07-20T12:10:45;3.38;;;0.85;;
25333;SDS011;24559;53.590;9.764;2023-07-20T12:13:11;1.88;;;0.77;;
25333;SDS011;24559;53.590;9.764;2023-07-20T12:15:38;2.20;;;0.70;;
25333;SDS011;24559;53.590;9.764;2023-07-20T12:18:04;2.97;;;0.95;;
25333;SDS011;24559;53.590;9.764;2023-07-20T12:20:37;3.13;;;1.08;;
25333;SDS011;24559;53.590;9.764;2023-07-20T12:23:11;2.78;;;1.23;;
25333;SDS011;24559;53.590;9.764;2023-07-20T12:25:41;3.22;;;0.95;;
25333;SDS011;24559;53.590;9.764;2023-07-20T12:28:11;2.10;;;0.80;;
25333;SDS011;24559;53.590;9.764;2023-07-20T12:30:39;3.37;;;0.70;;
25333;SDS011;24559;53.590;9.764;2023-07-20T12:33:05;2.03;;;0.88;;
25333;SDS011;24559;53.590;9.764;2023-07-20T12:35:31;6.35;;;1.50;;
25333;SDS011;24559;53.590;9.764;2023-07-20T12:37:58;2.63;;;0.90;;
25333;SDS011;24559;53.590;9.764;2023-07-20T12:40:24;1.65;;;0.68;;
25333;SDS011;24559;53.590;9.764;2023-07-20T12:42:50;2.25;;;0.90;;
25333;SDS011;24559;53.590;9.764;2023-07-20T12:45:17;0.90;;;0.60;;
25333;SDS011;24559;53.590;9.764;2023-07-20T12:47:43;1.40;;;0.80;;
25333;SDS011;24559;53.590;9.764;2023-07-20T12:50:10;2.80;;;0.88;;
25333;SDS011;24559;53.590;9.764;2023-07-20T12:52:37;1.75;;;0.70;;
25333;SDS011;24559;53.590;9.764;2023-07-20T12:55:04;1.63;;;0.60;;
25333;SDS011;24559;53.590;9.764;2023-07-20T12:57:30;1.27;;;0.70;;
25333;SDS011;24559;53.590;9.764;2023-07-20T12:59:56;1.75;;;0.70;;
25333;SDS011;24559;53.590;9.764;2023-07-20T13:02:22;0.90;;;0.55;;
25333;SDS011;24559;53.590;9.764;2023-07-20T13:04:49;2.08;;;0.68;;
25333;SDS011;24559;53.590;9.764;2023-07-20T13:07:15;3.60;;;0.90;;
25333;SDS011;24559;53.590;9.764;2023-07-20T13:09:41;2.47;;;0.80;;
25333;SDS011;24559;53.590;9.764;2023-07-20T13:12:08;1.63;;;0.70;;
25333;SDS011;24559;53.590;9.764;2023-07-20T13:14:34;3.67;;;0.95;;
25333;SDS011;24559;53.590;9.764;2023-07-20T13:17:00;1.15;;;0.68;;
25333;SDS011;24559;53.590;9.764;2023-07-20T13:19:26;1.02;;;0.70;;
25333;SDS011;24559;53.590;9.764;2023-07-20T13:21:52;1.02;;;0.70;;
25333;SDS011;24559;53.590;9.764;2023-07-20T13:24:19;1.30;;;0.63;;
25333;SDS011;24559;53.590;9.764;2023-07-20T13:26:45;0.70;;;0.70;;
25333;SDS011;24559;53.590;9.764;2023-07-20T13:29:11;2.05;;;0.80;;
25333;SDS011;24559;53.590;9.764;2023-07-20T13:31:37;2.15;;;0.80;;
25333;SDS011;24559;53.590;9.764;2023-07-20T13:34:03;1.40;;;0.80;;
25333;SDS011;24559;53.590;9.764;2023-07-20T13:36:31;3.25;;;0.90;;
25333;SDS011;24559;53.590;9.764;2023-07-20T13:38:57;1.70;;;0.90;;
25333;SDS011;24559;53.590;9.764;2023-07-20T13:41:23;1.42;;;0.60;;
25333;SDS011;24559;53.590;9.764;2023-07-20T13:43:49;2.35;;;0.68;;
25333;SDS011;24559;53.590;9.764;2023-07-20T13:46:16;3.85;;;1.08;;
25333;SDS011;24559;53.590;9.764;2023-07-20T13:48:42;1.50;;;0.88;;
25333;SDS011;24559;53.590;9.764;2023-07-20T13:51:09;1.27;;;0.80;;
25333;SDS011;24559;53.590;9.764;2023-07-20T13:53:35;4.78;;;0.68;;
25333;SDS011;24559;53.590;9.764;2023-07-20T13:56:01;1.63;;;0.70;;
25333;SDS011;24559;53.590;9.764;2023-07-20T13:58:29;1.50;;;0.90;;
25333;SDS011;24559;53.590;9.764;2023-07-20T14:00:55;2.45;;;0.80;;
25333;SDS011;24559;53.590;9.764;2023-07-20T14:03:21;1.80;;;1.00;;
25333;SDS011;24559;53.590;9.764;2023-07-20T14:05:48;1.88;;;0.73;;
25333;SDS011;24559;53.590;9.764;2023-07-20T14:08:14;1.30;;;0.77;;
25333;SDS011;24559;53.590;9.764;2023-07-20T14:10:40;2.75;;;0.73;;
25333;SDS011;24559;53.590;9.764;2023-07-20T14:13:06;3.83;;;0.90;;
25333;SDS011;24559;53.590;9.764;2023-07-20T14:15:33;3.72;;;1.00;;
25333;SDS011;24559;53.590;9.764;2023-07-20T14:18:00;1.70;;;0.82;;
25333;SDS011;24559;53.590;9.764;2023-07-20T14:20:27;2.63;;;0.88;;
25333;SDS011;24559;53.590;9.764;2023-07-20T14:22:53;1.70;;;1.00;;
25333;SDS011;24559;53.590;9.764;2023-07-20T14:25:19;2.42;;;0.88;;
25333;SDS011;24559;53.590;9.764;2023-07-20T14:27:45;1.52;;;0.80;;
25333;SDS011;24559;53.590;9.764;2023-07-20T14:30:11;1.30;;;0.65;;
25333;SDS011;24559;53.590;9.764;2023-07-20T14:32:38;1.77;;;0.80;;
25333;SDS011;24559;53.590;9.764;2023-07-20T14:35:04;3.15;;;1.10;;
25333;SDS011;24559;53.590;9.764;2023-07-20T14:37:31;4.65;;;0.80;;
25333;SDS011;24559;53.590;9.764;2023-07-20T14:39:58;2.67;;;0.80;;
25333;SDS011;24559;53.590;9.764;2023-07-20T14:42:24;2.13;;;1.20;;
25333;SDS011;24559;53.590;9.764;2023-07-20T14:44:51;2.47;;;1.02;;
25333;SDS011;24559;53.590;9.764;2023-07-20T14:47:17;2.47;;;0.90;;
25333;SDS011;24559;53.590;9.764;2023-07-20T14:49:43;2.78;;;0.90;;
25333;SDS011;24559;53.590;9.764;2023-07-20T14:52:10;3.50;;;0.90;;
25333;SDS011;24559;53.590;9.764;2023-07-20T14:54:37;1.65;;;0.90;;
25333;SDS011;24559;53.590;9.764;2023-07-20T14:57:03;2.83;;;0.93;;
25333;SDS011;24559;53.590;9.764;2023-07-20T14:59:30;3.40;;;1.10;;
25333;SDS011;24559;53.590;9.764;2023-07-20T15:01:56;3.63;;;1.40;;
25333;SDS011;24559;53.590;9.764;2023-07-20T15:04:22;2.85;;;1.08;;
25333;SDS011;24559;53.590;9.764;2023-07-20T15:06:48;7.97;;;1.33;;
25333;SDS011;24559;53.590;9.764;2023-07-20T15:09:14;2.50;;;0.98;;
25333;SDS011;24559;53.590;9.764;2023-07-20T15:11:40;4.72;;;1.20;;
25333;SDS011;24559;53.590;9.764;2023-07-20T15:14:08;2.10;;;1.05;;
25333;SDS011;24559;53.590;9.764;2023-07-20T15:16:35;5.55;;;1.15;;